sensor_id;sensor_type;location;lat;lon;timestamp;temperature;humidity
74657;DHT22;63185;45.642;13.764;2022-12-29T00:00:55;13.30;69.70
74657;DHT22;63185;45.642;13.764;2022-12-29T00:03:21;13.20;70.10
74657;DHT22;63185;45.642;13.764;2022-12-29T00:05:53;13.20;70.30
74657;DHT22;63185;45.642;13.764;2022-12-29T00:08:19;13.20;70.30
74657;DHT22;63185;45.642;13.764;2022-12-29T00:10:44;13.20;70.40
74657;DHT22;63185;45.642;13.764;2022-12-29T00:13:10;13.20;70.50
74657;DHT22;63185;45.642;13.764;2022-12-29T00:15:54;13.20;70.30
74657;DHT22;63185;45.642;13.764;2022-12-29T00:18:20;13.20;70.40
74657;DHT22;63185;45.642;13.764;2022-12-29T00:20:46;13.20;70.50
74657;DHT22;63185;45.642;13.764;2022-12-29T00:23:31;13.20;70.50
74657;DHT22;63185;45.642;13.764;2022-12-29T00:26:15;13.30;70.30
74657;DHT22;63185;45.642;13.764;2022-12-29T00:29:00;13.20;70.10
74657;DHT22;63185;45.642;13.764;2022-12-29T00:31:45;13.20;70.40
74657;DHT22;63185;45.642;13.764;2022-12-29T00:34:29;13.20;70.60
74657;DHT22;63185;45.642;13.764;2022-12-29T00:37:14;13.20;70.50
74657;DHT22;63185;45.642;13.764;2022-12-29T00:39:39;13.20;70.80
74657;DHT22;63185;45.642;13.764;2022-12-29T00:42:24;13.10;71.00
74657;DHT22;63185;45.642;13.764;2022-12-29T00:45:09;13.10;71.10
74657;DHT22;63185;45.642;13.764;2022-12-29T00:47:35;13.10;70.90
74657;DHT22;63185;45.642;13.764;2022-12-29T00:50:01;13.10;70.90
74657;DHT22;63185;45.642;13.764;2022-12-29T00:52:27;13.10;71.10
74657;DHT22;63185;45.642;13.764;2022-12-29T00:54:53;13.10;71.00
74657;DHT22;63185;45.642;13.764;2022-12-29T00:57:19;13.10;71.00
74657;DHT22;63185;45.642;13.764;2022-12-29T00:59:45;13.10;71.00
74657;DHT22;63185;45.642;13.764;2022-12-29T01:02:11;13.10;70.90
74657;DHT22;63185;45.642;13.764;2022-12-29T01:04:37;13.10;70.90
74657;DHT22;63185;45.642;13.764;2022-12-29T01:07:04;13.10;71.00
74657;DHT22;63185;45.642;13.764;2022-12-29T01:09:30;13.10;71.10
74657;DHT22;63185;45.642;13.764;2022-12-29T01:12:15;13.10;70.90
74657;DHT22;63185;45.642;13.764;2022-12-29T01:14:41;13.10;71.30
74657;DHT22;63185;45.642;13.764;2022-12-29T01:17:07;13.10;71.30
74657;DHT22;63185;45.642;13.764;2022-12-29T01:19:32;13.10;71.20
74657;DHT22;63185;45.642;13.764;2022-12-29T01:21:58;13.10;71.00
74657;DHT22;63185;45.642;13.764;2022-12-29T01:24:25;13.10;71.00
74657;DHT22;63185;45.642;13.764;2022-12-29T01:26:51;13.10;71.10
74657;DHT22;63185;45.642;13.764;2022-12-29T01:29:17;13.10;70.90
74657;DHT22;63185;45.642;13.764;2022-12-29T01:31:43;13.10;70.70
74657;DHT22;63185;45.642;13.764;2022-12-29T01:34:09;13.10;70.80
74657;DHT22;63185;45.642;13.764;2022-12-29T01:36:35;13.10;71.00
74657;DHT22;63185;45.642;13.764;2022-12-29T01:39:01;13.10;71.10
74657;DHT22;63185;45.642;13.764;2022-12-29T01:41:27;13.10;70.70
74657;DHT22;63185;45.642;13.764;2022-12-29T01:43:55;13.10;70.30
74657;DHT22;63185;45.642;13.764;2022-12-29T01:49:13;13.10;70.50
74657;DHT22;63185;45.642;13.764;2022-12-29T01:51:39;13.10;70.50
74657;DHT22;63185;45.642;13.764;2022-12-29T01:54:07;13.10;70.40
74657;DHT22;63185;45.642;13.764;2022-12-29T01:56:35;13.10;70.30
74657;DHT22;63185;45.642;13.764;2022-12-29T01:59:04;13.10;70.10
74657;DHT22;63185;45.642;13.764;2022-12-29T02:01:31;13.10;70.20
74657;DHT22;63185;45.642;13.764;2022-12-29T02:03:58;13.10;70.00
74657;DHT22;63185;45.642;13.764;2022-12-29T02:06:26;13.10;70.10
74657;DHT22;63185;45.642;13.764;2022-12-29T02:08:54;13.10;70.20
74657;DHT22;63185;45.642;13.764;2022-12-29T02:11:20;13.10;70.30
74657;DHT22;63185;45.642;13.764;2022-12-29T02:13:47;13.10;70.40
74657;DHT22;63185;45.642;13.764;2022-12-29T02:19:03;13.00;70.70
74657;DHT22;63185;45.642;13.764;2022-12-29T02:21:45;13.00;70.90
74657;DHT22;63185;45.642;13.764;2022-12-29T02:27:04;13.10;71.40
74657;DHT22;63185;45.642;13.764;2022-12-29T02:37:23;13.10;71.30
74657;DHT22;63185;45.642;13.764;2022-12-29T02:39:52;13.10;71.40
74657;DHT22;63185;45.642;13.764;2022-12-29T02:45:04;13.10;70.60
74657;DHT22;63185;45.642;13.764;2022-12-29T02:52:37;13.00;71.20
74657;DHT22;63185;45.642;13.764;2022-12-29T02:55:04;13.00;70.60
74657;DHT22;63185;45.642;13.764;2022-12-29T02:57:35;13.00;70.50
74657;DHT22;63185;45.642;13.764;2022-12-29T03:02:49;13.00;70.30
74657;DHT22;63185;45.642;13.764;2022-12-29T03:16:03;13.00;70.80
74657;DHT22;63185;45.642;13.764;2022-12-29T03:18:34;12.90;70.90
74657;DHT22;63185;45.642;13.764;2022-12-29T03:21:03;12.80;70.90
74657;DHT22;63185;45.642;13.764;2022-12-29T03:23:32;12.80;71.10
74657;DHT22;63185;45.642;13.764;2022-12-29T03:26:00;12.80;70.90
74657;DHT22;63185;45.642;13.764;2022-12-29T03:28:35;12.80;70.80
74657;DHT22;63185;45.642;13.764;2022-12-29T03:31:03;12.80;70.80
74657;DHT22;63185;45.642;13.764;2022-12-29T03:33:29;12.70;71.00
74657;DHT22;63185;45.642;13.764;2022-12-29T03:35:57;12.90;71.00
74657;DHT22;63185;45.642;13.764;2022-12-29T03:38:25;12.80;70.90
74657;DHT22;63185;45.642;13.764;2022-12-29T03:40:55;12.80;70.90
74657;DHT22;63185;45.642;13.764;2022-12-29T03:43:22;12.80;71.10
74657;DHT22;63185;45.642;13.764;2022-12-29T03:45:49;12.80;71.30
74657;DHT22;63185;45.642;13.764;2022-12-29T03:48:14;12.80;71.50
74657;DHT22;63185;45.642;13.764;2022-12-29T03:50:41;12.80;71.60
74657;DHT22;63185;45.642;13.764;2022-12-29T03:53:06;12.80;71.60
74657;DHT22;63185;45.642;13.764;2022-12-29T03:55:32;12.90;71.40
74657;DHT22;63185;45.642;13.764;2022-12-29T03:58:01;12.90;71.60
74657;DHT22;63185;45.642;13.764;2022-12-29T04:00:27;12.90;71.50
74657;DHT22;63185;45.642;13.764;2022-12-29T04:02:53;12.90;71.20
74657;DHT22;63185;45.642;13.764;2022-12-29T04:05:20;12.90;70.40
74657;DHT22;63185;45.642;13.764;2022-12-29T04:07:46;12.80;70.40
74657;DHT22;63185;45.642;13.764;2022-12-29T04:10:12;12.90;70.40
74657;DHT22;63185;45.642;13.764;2022-12-29T04:12:38;12.90;70.80
74657;DHT22;63185;45.642;13.764;2022-12-29T04:15:04;12.90;70.30
74657;DHT22;63185;45.642;13.764;2022-12-29T04:17:30;12.90;70.50
74657;DHT22;63185;45.642;13.764;2022-12-29T04:19:56;13.00;70.70
74657;DHT22;63185;45.642;13.764;2022-12-29T04:22:42;13.00;70.50
74657;DHT22;63185;45.642;13.764;2022-12-29T04:25:08;13.00;70.30
74657;DHT22;63185;45.642;13.764;2022-12-29T04:27:35;13.10;70.10
74657;DHT22;63185;45.642;13.764;2022-12-29T04:30:01;13.10;70.00
74657;DHT22;63185;45.642;13.764;2022-12-29T04:32:26;13.10;70.00
74657;DHT22;63185;45.642;13.764;2022-12-29T04:34:52;13.10;70.40
74657;DHT22;63185;45.642;13.764;2022-12-29T04:37:18;13.10;70.70
74657;DHT22;63185;45.642;13.764;2022-12-29T04:39:44;13.10;70.60
74657;DHT22;63185;45.642;13.764;2022-12-29T04:42:10;13.10;70.80
74657;DHT22;63185;45.642;13.764;2022-12-29T04:44:36;13.10;70.50
74657;DHT22;63185;45.642;13.764;2022-12-29T04:47:02;13.10;70.50
74657;DHT22;63185;45.642;13.764;2022-12-29T04:49:29;13.10;70.30
74657;DHT22;63185;45.642;13.764;2022-12-29T04:51:55;13.10;70.30
74657;DHT22;63185;45.642;13.764;2022-12-29T04:54:21;13.10;70.20
74657;DHT22;63185;45.642;13.764;2022-12-29T04:56:47;13.20;70.20
74657;DHT22;63185;45.642;13.764;2022-12-29T04:59:13;13.10;70.30
74657;DHT22;63185;45.642;13.764;2022-12-29T05:01:39;13.20;70.30
74657;DHT22;63185;45.642;13.764;2022-12-29T05:04:06;13.10;70.40
74657;DHT22;63185;45.642;13.764;2022-12-29T05:06:32;13.10;70.50
74657;DHT22;63185;45.642;13.764;2022-12-29T05:08:58;13.10;70.40
74657;DHT22;63185;45.642;13.764;2022-12-29T05:11:24;13.10;70.50
74657;DHT22;63185;45.642;13.764;2022-12-29T05:13:50;13.20;70.40
74657;DHT22;63185;45.642;13.764;2022-12-29T05:16:15;13.20;70.20
74657;DHT22;63185;45.642;13.764;2022-12-29T05:18:41;13.10;70.00
74657;DHT22;63185;45.642;13.764;2022-12-29T05:21:07;13.10;70.30
74657;DHT22;63185;45.642;13.764;2022-12-29T05:23:33;13.10;70.20
74657;DHT22;63185;45.642;13.764;2022-12-29T05:26:00;13.10;70.30
74657;DHT22;63185;45.642;13.764;2022-12-29T05:28:26;13.10;70.30
74657;DHT22;63185;45.642;13.764;2022-12-29T05:30:52;13.10;70.00
74657;DHT22;63185;45.642;13.764;2022-12-29T05:33:19;13.20;69.90
74657;DHT22;63185;45.642;13.764;2022-12-29T05:35:44;13.20;70.00
74657;DHT22;63185;45.642;13.764;2022-12-29T05:38:10;13.20;69.90
74657;DHT22;63185;45.642;13.764;2022-12-29T05:40:36;13.20;69.80
74657;DHT22;63185;45.642;13.764;2022-12-29T05:43:02;13.20;69.70
74657;DHT22;63185;45.642;13.764;2022-12-29T05:45:28;13.20;70.10
74657;DHT22;63185;45.642;13.764;2022-12-29T05:47:55;13.20;70.10
74657;DHT22;63185;45.642;13.764;2022-12-29T05:50:21;13.20;70.10
74657;DHT22;63185;45.642;13.764;2022-12-29T05:52:47;13.20;70.20
74657;DHT22;63185;45.642;13.764;2022-12-29T05:55:13;13.10;70.30
74657;DHT22;63185;45.642;13.764;2022-12-29T05:57:39;13.20;70.20
74657;DHT22;63185;45.642;13.764;2022-12-29T06:00:05;13.20;69.80
74657;DHT22;63185;45.642;13.764;2022-12-29T06:02:32;13.20;69.70
74657;DHT22;63185;45.642;13.764;2022-12-29T06:04:58;13.20;69.70
74657;DHT22;63185;45.642;13.764;2022-12-29T06:07:23;13.10;69.50
74657;DHT22;63185;45.642;13.764;2022-12-29T06:09:49;13.20;69.80
74657;DHT22;63185;45.642;13.764;2022-12-29T06:12:15;13.20;70.30
74657;DHT22;63185;45.642;13.764;2022-12-29T06:14:42;13.10;70.50
74657;DHT22;63185;45.642;13.764;2022-12-29T06:17:08;13.10;70.20
74657;DHT22;63185;45.642;13.764;2022-12-29T06:19:35;13.20;69.80
74657;DHT22;63185;45.642;13.764;2022-12-29T06:22:01;13.20;69.70
74657;DHT22;63185;45.642;13.764;2022-12-29T06:24:27;13.20;69.70
74657;DHT22;63185;45.642;13.764;2022-12-29T06:26:53;13.20;69.90
74657;DHT22;63185;45.642;13.764;2022-12-29T06:29:19;13.20;69.70
74657;DHT22;63185;45.642;13.764;2022-12-29T06:31:47;13.30;69.30
74657;DHT22;63185;45.642;13.764;2022-12-29T06:34:14;13.30;68.80
74657;DHT22;63185;45.642;13.764;2022-12-29T06:36:41;13.30;68.80
74657;DHT22;63185;45.642;13.764;2022-12-29T06:39:07;13.30;68.50
74657;DHT22;63185;45.642;13.764;2022-12-29T06:41:34;13.30;68.60
74657;DHT22;63185;45.642;13.764;2022-12-29T06:44:00;13.30;68.70
74657;DHT22;63185;45.642;13.764;2022-12-29T06:46:26;13.30;69.10
74657;DHT22;63185;45.642;13.764;2022-12-29T06:48:52;13.30;69.40
74657;DHT22;63185;45.642;13.764;2022-12-29T06:51:18;13.30;69.60
74657;DHT22;63185;45.642;13.764;2022-12-29T06:53:44;13.30;70.10
74657;DHT22;63185;45.642;13.764;2022-12-29T06:56:11;13.30;70.60
74657;DHT22;63185;45.642;13.764;2022-12-29T06:58:36;13.30;71.40
74657;DHT22;63185;45.642;13.764;2022-12-29T07:01:02;13.30;71.60
74657;DHT22;63185;45.642;13.764;2022-12-29T07:03:28;13.30;71.90
74657;DHT22;63185;45.642;13.764;2022-12-29T07:05:55;13.30;72.00
74657;DHT22;63185;45.642;13.764;2022-12-29T07:08:21;13.30;72.10
74657;DHT22;63185;45.642;13.764;2022-12-29T07:10:47;13.30;72.70
74657;DHT22;63185;45.642;13.764;2022-12-29T07:13:13;13.20;73.20
74657;DHT22;63185;45.642;13.764;2022-12-29T07:15:39;13.20;73.50
74657;DHT22;63185;45.642;13.764;2022-12-29T07:18:05;13.20;73.20
74657;DHT22;63185;45.642;13.764;2022-12-29T07:20:31;13.30;72.90
74657;DHT22;63185;45.642;13.764;2022-12-29T07:22:58;13.30;72.60
74657;DHT22;63185;45.642;13.764;2022-12-29T07:25:24;13.20;72.60
74657;DHT22;63185;45.642;13.764;2022-12-29T07:27:50;13.20;72.40
74657;DHT22;63185;45.642;13.764;2022-12-29T07:30:16;13.20;73.20
74657;DHT22;63185;45.642;13.764;2022-12-29T07:32:42;13.20;73.50
74657;DHT22;63185;45.642;13.764;2022-12-29T07:35:08;13.30;73.30
74657;DHT22;63185;45.642;13.764;2022-12-29T07:37:34;13.30;73.20
74657;DHT22;63185;45.642;13.764;2022-12-29T07:40:00;13.30;73.20
74657;DHT22;63185;45.642;13.764;2022-12-29T07:42:26;13.20;73.30
74657;DHT22;63185;45.642;13.764;2022-12-29T07:44:53;13.30;72.80
74657;DHT22;63185;45.642;13.764;2022-12-29T07:47:19;13.20;73.40
74657;DHT22;63185;45.642;13.764;2022-12-29T07:49:45;13.10;72.40
74657;DHT22;63185;45.642;13.764;2022-12-29T07:52:11;13.20;72.70
74657;DHT22;63185;45.642;13.764;2022-12-29T07:54:37;13.20;73.20
74657;DHT22;63185;45.642;13.764;2022-12-29T07:57:04;13.10;73.80
74657;DHT22;63185;45.642;13.764;2022-12-29T07:59:31;13.10;73.80
74657;DHT22;63185;45.642;13.764;2022-12-29T08:01:57;13.20;74.30
74657;DHT22;63185;45.642;13.764;2022-12-29T08:04:23;13.20;74.90
74657;DHT22;63185;45.642;13.764;2022-12-29T08:06:49;13.30;74.10
74657;DHT22;63185;45.642;13.764;2022-12-29T08:09:15;13.30;73.90
74657;DHT22;63185;45.642;13.764;2022-12-29T08:11:41;13.30;74.10
74657;DHT22;63185;45.642;13.764;2022-12-29T08:14:08;13.30;74.40
74657;DHT22;63185;45.642;13.764;2022-12-29T08:16:34;13.30;74.40
74657;DHT22;63185;45.642;13.764;2022-12-29T08:19:00;13.20;73.50
74657;DHT22;63185;45.642;13.764;2022-12-29T08:21:27;13.30;73.90
74657;DHT22;63185;45.642;13.764;2022-12-29T08:23:53;13.20;74.50
74657;DHT22;63185;45.642;13.764;2022-12-29T08:26:20;13.20;74.80
74657;DHT22;63185;45.642;13.764;2022-12-29T08:28:46;13.20;74.90
74657;DHT22;63185;45.642;13.764;2022-12-29T08:31:12;12.90;75.60
74657;DHT22;63185;45.642;13.764;2022-12-29T08:33:37;12.90;75.70
74657;DHT22;63185;45.642;13.764;2022-12-29T08:36:04;12.90;75.90
74657;DHT22;63185;45.642;13.764;2022-12-29T08:38:31;12.90;76.10
74657;DHT22;63185;45.642;13.764;2022-12-29T08:40:58;12.70;76.50
74657;DHT22;63185;45.642;13.764;2022-12-29T08:43:26;12.60;76.50
74657;DHT22;63185;45.642;13.764;2022-12-29T08:45:52;12.70;76.70
74657;DHT22;63185;45.642;13.764;2022-12-29T08:48:18;12.80;76.60
74657;DHT22;63185;45.642;13.764;2022-12-29T08:50:48;13.00;76.90
74657;DHT22;63185;45.642;13.764;2022-12-29T08:53:15;13.10;76.50
74657;DHT22;63185;45.642;13.764;2022-12-29T08:55:40;13.20;76.30
74657;DHT22;63185;45.642;13.764;2022-12-29T08:58:07;13.20;76.30
74657;DHT22;63185;45.642;13.764;2022-12-29T09:00:33;13.40;76.20
74657;DHT22;63185;45.642;13.764;2022-12-29T09:02:59;13.60;76.30
74657;DHT22;63185;45.642;13.764;2022-12-29T09:05:25;13.60;76.10
74657;DHT22;63185;45.642;13.764;2022-12-29T09:07:51;13.60;75.80
74657;DHT22;63185;45.642;13.764;2022-12-29T09:10:17;13.60;76.10
74657;DHT22;63185;45.642;13.764;2022-12-29T09:12:43;13.70;76.10
74657;DHT22;63185;45.642;13.764;2022-12-29T09:15:09;13.70;76.30
74657;DHT22;63185;45.642;13.764;2022-12-29T09:17:36;13.70;76.50
74657;DHT22;63185;45.642;13.764;2022-12-29T09:20:22;13.70;76.70
74657;DHT22;63185;45.642;13.764;2022-12-29T09:22:48;13.70;76.50
74657;DHT22;63185;45.642;13.764;2022-12-29T09:25:15;13.80;76.00
74657;DHT22;63185;45.642;13.764;2022-12-29T09:27:42;13.90;75.90
74657;DHT22;63185;45.642;13.764;2022-12-29T09:30:08;14.00;76.00
74657;DHT22;63185;45.642;13.764;2022-12-29T09:32:35;14.00;75.90
74657;DHT22;63185;45.642;13.764;2022-12-29T09:35:01;14.20;75.50
74657;DHT22;63185;45.642;13.764;2022-12-29T09:37:28;14.30;74.70
74657;DHT22;63185;45.642;13.764;2022-12-29T09:39:54;14.30;74.60
74657;DHT22;63185;45.642;13.764;2022-12-29T09:42:32;14.30;74.40
74657;DHT22;63185;45.642;13.764;2022-12-29T09:47:38;14.20;73.80
74657;DHT22;63185;45.642;13.764;2022-12-29T09:52:42;14.00;74.10
74657;DHT22;63185;45.642;13.764;2022-12-29T09:55:17;13.90;74.20
74657;DHT22;63185;45.642;13.764;2022-12-29T09:57:54;13.80;74.60
74657;DHT22;63185;45.642;13.764;2022-12-29T10:00:23;13.90;74.70
74657;DHT22;63185;45.642;13.764;2022-12-29T10:03:09;14.00;74.40
74657;DHT22;63185;45.642;13.764;2022-12-29T10:10:46;13.80;74.20
74657;DHT22;63185;45.642;13.764;2022-12-29T10:13:27;13.90;74.20
74657;DHT22;63185;45.642;13.764;2022-12-29T10:23:40;13.90;74.50
74657;DHT22;63185;45.642;13.764;2022-12-29T10:26:12;14.10;74.40
74657;DHT22;63185;45.642;13.764;2022-12-29T10:28:43;14.10;73.80
74657;DHT22;63185;45.642;13.764;2022-12-29T10:31:13;14.20;73.60
74657;DHT22;63185;45.642;13.764;2022-12-29T10:33:42;14.30;73.50
74657;DHT22;63185;45.642;13.764;2022-12-29T10:36:10;14.40;72.60
74657;DHT22;63185;45.642;13.764;2022-12-29T10:38:40;14.40;72.60
74657;DHT22;63185;45.642;13.764;2022-12-29T10:41:17;14.50;72.90
74657;DHT22;63185;45.642;13.764;2022-12-29T10:46:12;14.30;74.00
74657;DHT22;63185;45.642;13.764;2022-12-29T10:48:38;14.40;73.90
74657;DHT22;63185;45.642;13.764;2022-12-29T10:51:05;14.50;73.20
74657;DHT22;63185;45.642;13.764;2022-12-29T10:53:42;14.60;72.90
74657;DHT22;63185;45.642;13.764;2022-12-29T10:56:17;14.60;72.50
74657;DHT22;63185;45.642;13.764;2022-12-29T10:58:46;14.60;72.50
74657;DHT22;63185;45.642;13.764;2022-12-29T11:01:13;14.70;72.60
74657;DHT22;63185;45.642;13.764;2022-12-29T11:08:37;14.80;71.50
74657;DHT22;63185;45.642;13.764;2022-12-29T11:11:05;14.80;71.00
74657;DHT22;63185;45.642;13.764;2022-12-29T11:13:33;14.80;71.20
74657;DHT22;63185;45.642;13.764;2022-12-29T11:15:59;14.80;71.50
74657;DHT22;63185;45.642;13.764;2022-12-29T11:18:47;14.70;71.70
74657;DHT22;63185;45.642;13.764;2022-12-29T11:23:57;14.60;72.00
74657;DHT22;63185;45.642;13.764;2022-12-29T11:26:23;14.60;72.00
74657;DHT22;63185;45.642;13.764;2022-12-29T11:31:42;14.60;72.60
74657;DHT22;63185;45.642;13.764;2022-12-29T11:34:08;14.40;72.90
74657;DHT22;63185;45.642;13.764;2022-12-29T11:36:34;14.40;73.00
74657;DHT22;63185;45.642;13.764;2022-12-29T11:39:03;14.20;73.40
74657;DHT22;63185;45.642;13.764;2022-12-29T11:41:29;14.20;73.30
74657;DHT22;63185;45.642;13.764;2022-12-29T11:43:57;14.20;73.00
74657;DHT22;63185;45.642;13.764;2022-12-29T11:46:27;14.20;73.00
74657;DHT22;63185;45.642;13.764;2022-12-29T11:48:53;14.20;72.80
74657;DHT22;63185;45.642;13.764;2022-12-29T11:51:24;14.30;72.70
74657;DHT22;63185;45.642;13.764;2022-12-29T11:53:51;14.30;73.40
74657;DHT22;63185;45.642;13.764;2022-12-29T11:56:31;14.40;73.40
74657;DHT22;63185;45.642;13.764;2022-12-29T11:58:57;14.40;73.10
74657;DHT22;63185;45.642;13.764;2022-12-29T12:01:27;14.50;73.20
74657;DHT22;63185;45.642;13.764;2022-12-29T12:04:01;14.50;73.40
74657;DHT22;63185;45.642;13.764;2022-12-29T12:06:28;14.60;72.60
74657;DHT22;63185;45.642;13.764;2022-12-29T12:09:38;14.60;72.10
74657;DHT22;63185;45.642;13.764;2022-12-29T12:11:43;14.60;72.30
74657;DHT22;63185;45.642;13.764;2022-12-29T12:16:59;14.60;71.80
74657;DHT22;63185;45.642;13.764;2022-12-29T12:19:33;14.70;71.90
74657;DHT22;63185;45.642;13.764;2022-12-29T12:22:03;14.80;71.70
74657;DHT22;63185;45.642;13.764;2022-12-29T12:29:52;15.00;70.70
74657;DHT22;63185;45.642;13.764;2022-12-29T12:32:22;15.10;70.60
74657;DHT22;63185;45.642;13.764;2022-12-29T12:34:50;15.10;70.80
74657;DHT22;63185;45.642;13.764;2022-12-29T12:47:59;15.00;69.00
74657;DHT22;63185;45.642;13.764;2022-12-29T13:00:33;14.60;70.10
74657;DHT22;63185;45.642;13.764;2022-12-29T13:15:46;14.50;71.30
74657;DHT22;63185;45.642;13.764;2022-12-29T13:28:20;13.50;73.50
74657;DHT22;63185;45.642;13.764;2022-12-29T13:38:39;13.60;72.70
74657;DHT22;63185;45.642;13.764;2022-12-29T13:41:09;13.60;72.80
74657;DHT22;63185;45.642;13.764;2022-12-29T13:43:37;13.70;72.40
74657;DHT22;63185;45.642;13.764;2022-12-29T13:46:09;13.70;72.50
74657;DHT22;63185;45.642;13.764;2022-12-29T13:48:53;13.70;72.70
74657;DHT22;63185;45.642;13.764;2022-12-29T13:51:22;13.90;72.90
74657;DHT22;63185;45.642;13.764;2022-12-29T13:56:38;14.00;71.40
74657;DHT22;63185;45.642;13.764;2022-12-29T14:04:09;14.10;70.60
74657;DHT22;63185;45.642;13.764;2022-12-29T14:06:36;14.10;69.90
74657;DHT22;63185;45.642;13.764;2022-12-29T14:09:06;14.10;69.50
74657;DHT22;63185;45.642;13.764;2022-12-29T14:11:51;14.10;69.30
74657;DHT22;63185;45.642;13.764;2022-12-29T14:16:42;13.90;70.00
74657;DHT22;63185;45.642;13.764;2022-12-29T14:21:36;13.70;70.50
74657;DHT22;63185;45.642;13.764;2022-12-29T14:26:47;13.60;70.80
74657;DHT22;63185;45.642;13.764;2022-12-29T14:31:51;13.60;71.00
74657;DHT22;63185;45.642;13.764;2022-12-29T14:44:25;13.70;71.20
74657;DHT22;63185;45.642;13.764;2022-12-29T14:49:20;13.70;71.00
74657;DHT22;63185;45.642;13.764;2022-12-29T14:51:47;13.70;71.20
74657;DHT22;63185;45.642;13.764;2022-12-29T14:56:58;13.70;71.60
74657;DHT22;63185;45.642;13.764;2022-12-29T14:59:23;13.80;70.90
74657;DHT22;63185;45.642;13.764;2022-12-29T15:01:51;13.70;71.00
74657;DHT22;63185;45.642;13.764;2022-12-29T15:04:18;13.70;71.20
74657;DHT22;63185;45.642;13.764;2022-12-29T15:06:44;13.80;71.40
74657;DHT22;63185;45.642;13.764;2022-12-29T15:14:26;13.80;71.70
74657;DHT22;63185;45.642;13.764;2022-12-29T15:16:53;13.80;71.80
74657;DHT22;63185;45.642;13.764;2022-12-29T15:19:21;13.80;71.70
74657;DHT22;63185;45.642;13.764;2022-12-29T15:21:47;13.80;71.60
74657;DHT22;63185;45.642;13.764;2022-12-29T15:24:13;13.80;71.80
74657;DHT22;63185;45.642;13.764;2022-12-29T15:26:40;13.80;71.60
74657;DHT22;63185;45.642;13.764;2022-12-29T15:29:27;13.70;72.00
74657;DHT22;63185;45.642;13.764;2022-12-29T15:31:51;13.60;72.20
74657;DHT22;63185;45.642;13.764;2022-12-29T15:34:19;13.40;73.40
74657;DHT22;63185;45.642;13.764;2022-12-29T15:36:46;13.40;73.70
74657;DHT22;63185;45.642;13.764;2022-12-29T15:39:18;13.40;73.80
74657;DHT22;63185;45.642;13.764;2022-12-29T15:41:50;13.50;73.80
74657;DHT22;63185;45.642;13.764;2022-12-29T15:44:34;13.40;73.90
74657;DHT22;63185;45.642;13.764;2022-12-29T15:47:02;13.50;74.20
74657;DHT22;63185;45.642;13.764;2022-12-29T15:49:28;13.40;74.80
74657;DHT22;63185;45.642;13.764;2022-12-29T15:51:54;13.40;75.20
74657;DHT22;63185;45.642;13.764;2022-12-29T15:54:20;13.40;75.40
74657;DHT22;63185;45.642;13.764;2022-12-29T15:56:46;13.40;75.80
74657;DHT22;63185;45.642;13.764;2022-12-29T15:59:28;13.40;76.20
74657;DHT22;63185;45.642;13.764;2022-12-29T16:01:55;13.40;76.50
74657;DHT22;63185;45.642;13.764;2022-12-29T16:04:21;13.30;76.60
74657;DHT22;63185;45.642;13.764;2022-12-29T16:07:00;13.20;76.20
74657;DHT22;63185;45.642;13.764;2022-12-29T16:09:43;13.20;77.10
74657;DHT22;63185;45.642;13.764;2022-12-29T16:12:19;13.20;77.40
74657;DHT22;63185;45.642;13.764;2022-12-29T16:14:50;13.20;76.90
74657;DHT22;63185;45.642;13.764;2022-12-29T16:17:18;13.20;76.90
74657;DHT22;63185;45.642;13.764;2022-12-29T16:19:49;13.30;77.30
74657;DHT22;63185;45.642;13.764;2022-12-29T16:22:25;13.30;77.50
74657;DHT22;63185;45.642;13.764;2022-12-29T16:24:54;13.30;77.70
74657;DHT22;63185;45.642;13.764;2022-12-29T16:27:21;13.40;77.90
74657;DHT22;63185;45.642;13.764;2022-12-29T16:29:49;13.40;77.90
74657;DHT22;63185;45.642;13.764;2022-12-29T16:34:49;13.50;76.60
74657;DHT22;63185;45.642;13.764;2022-12-29T16:37:34;13.40;76.80
74657;DHT22;63185;45.642;13.764;2022-12-29T16:43:02;13.40;78.00
74657;DHT22;63185;45.642;13.764;2022-12-29T16:50:35;13.50;78.10
74657;DHT22;63185;45.642;13.764;2022-12-29T16:53:01;13.50;78.00
74657;DHT22;63185;45.642;13.764;2022-12-29T16:55:28;13.50;78.30
74657;DHT22;63185;45.642;13.764;2022-12-29T16:57:54;13.60;78.40
74657;DHT22;63185;45.642;13.764;2022-12-29T17:00:31;13.60;78.30
74657;DHT22;63185;45.642;13.764;2022-12-29T17:02:59;13.50;78.50
74657;DHT22;63185;45.642;13.764;2022-12-29T17:05:25;13.50;78.60
74657;DHT22;63185;45.642;13.764;2022-12-29T17:07:51;13.50;78.50
74657;DHT22;63185;45.642;13.764;2022-12-29T17:10:18;13.50;78.40
74657;DHT22;63185;45.642;13.764;2022-12-29T17:12:44;13.50;78.60
74657;DHT22;63185;45.642;13.764;2022-12-29T17:17:47;13.60;78.60
74657;DHT22;63185;45.642;13.764;2022-12-29T17:20:14;13.50;78.80
74657;DHT22;63185;45.642;13.764;2022-12-29T17:22:40;13.50;78.70
74657;DHT22;63185;45.642;13.764;2022-12-29T17:25:05;13.50;78.80
74657;DHT22;63185;45.642;13.764;2022-12-29T17:27:33;13.50;78.80
74657;DHT22;63185;45.642;13.764;2022-12-29T17:30:01;13.50;78.80
74657;DHT22;63185;45.642;13.764;2022-12-29T17:32:27;13.60;78.70
74657;DHT22;63185;45.642;13.764;2022-12-29T17:34:53;13.60;78.60
74657;DHT22;63185;45.642;13.764;2022-12-29T17:39:50;13.50;79.00
74657;DHT22;63185;45.642;13.764;2022-12-29T17:42:17;13.60;79.00
74657;DHT22;63185;45.642;13.764;2022-12-29T17:44:42;13.50;79.10
74657;DHT22;63185;45.642;13.764;2022-12-29T17:47:11;13.50;79.00
74657;DHT22;63185;45.642;13.764;2022-12-29T17:49:36;13.60;79.00
74657;DHT22;63185;45.642;13.764;2022-12-29T17:52:02;13.60;79.00
74657;DHT22;63185;45.642;13.764;2022-12-29T17:54:28;13.50;79.10
74657;DHT22;63185;45.642;13.764;2022-12-29T17:56:53;13.50;79.30
74657;DHT22;63185;45.642;13.764;2022-12-29T17:59:20;13.30;79.40
74657;DHT22;63185;45.642;13.764;2022-12-29T18:01:47;13.30;79.70
74657;DHT22;63185;45.642;13.764;2022-12-29T18:04:13;13.40;79.70
74657;DHT22;63185;45.642;13.764;2022-12-29T18:06:39;13.50;79.30
74657;DHT22;63185;45.642;13.764;2022-12-29T18:09:05;13.50;79.10
74657;DHT22;63185;45.642;13.764;2022-12-29T18:11:33;13.40;79.20
74657;DHT22;63185;45.642;13.764;2022-12-29T18:13:59;13.40;79.70
74657;DHT22;63185;45.642;13.764;2022-12-29T18:16:25;13.30;79.80
74657;DHT22;63185;45.642;13.764;2022-12-29T18:18:50;13.20;80.20
74657;DHT22;63185;45.642;13.764;2022-12-29T18:21:17;13.20;80.00
74657;DHT22;63185;45.642;13.764;2022-12-29T18:23:43;13.10;80.60